createdAt,value
2023-03-12T07:17:42.719Z,8.90
2023-03-12T07:20:10.316Z,9.00
2023-03-12T07:22:37.123Z,9.00
2023-03-12T07:25:04.991Z,9.00
2023-03-12T07:27:31.896Z,9.10
2023-03-12T07:29:58.698Z,9.20
2023-03-12T07:32:25.589Z,9.30
2023-03-12T07:34:52.418Z,9.40
2023-03-12T07:37:19.201Z,9.60
2023-03-12T07:39:47.796Z,9.70
2023-03-12T07:42:14.666Z,10.00
2023-03-12T07:44:41.490Z,10.20
2023-03-12T07:47:22.844Z,10.40
2023-03-12T07:49:50.303Z,10.60
2023-03-12T07:52:18.379Z,10.80
2023-03-12T07:54:45.617Z,11.10
2023-03-12T07:57:12.673Z,11.30
2023-03-12T07:59:40.024Z,11.50
2023-03-12T08:02:07.275Z,11.70
2023-03-12T08:04:34.258Z,11.90
2023-03-12T08:07:02.996Z,12.00
2023-03-12T08:09:29.831Z,12.30
2023-03-12T08:11:56.696Z,12.50
2023-03-12T08:14:23.607Z,12.70
2023-03-12T08:16:50.438Z,12.90
2023-03-12T08:19:18.137Z,13.00
2023-03-12T08:21:45.279Z,13.20
2023-03-12T08:24:12.099Z,13.30
2023-03-12T08:26:38.902Z,13.50
2023-03-12T08:29:05.750Z,13.60
2023-03-12T08:31:32.706Z,13.70
2023-03-12T08:33:59.544Z,13.80
2023-03-12T08:36:26.383Z,13.80
2023-03-12T08:38:53.209Z,14.00
2023-03-12T08:41:20.185Z,14.10
2023-03-12T08:43:47.171Z,14.10
2023-03-12T08:46:14.298Z,14.00
2023-03-12T08:48:43.959Z,14.00
2023-03-12T08:51:10.825Z,14.10
2023-03-12T08:53:37.969Z,14.20
2023-03-12T08:56:05.823Z,14.40
2023-03-12T08:58:32.766Z,14.50
2023-03-12T09:00:59.626Z,14.60
2023-03-12T09:03:26.954Z,14.80
2023-03-12T09:06:13.194Z,14.70
2023-03-12T09:08:40.992Z,14.70
2023-03-12T09:11:10.106Z,14.80
2023-03-12T09:13:58.811Z,15.00
2023-03-12T09:16:23.984Z,15.00
2023-03-12T09:18:50.997Z,15.20
2023-03-12T09:21:17.902Z,15.20
2023-03-12T09:23:44.746Z,15.30
2023-03-12T09:26:12.654Z,15.40
2023-03-12T09:28:39.783Z,15.50
2023-03-12T09:31:06.741Z,15.60
2023-03-12T09:33:35.947Z,15.80
2023-03-12T09:36:03.754Z,15.90
2023-03-12T09:38:35.429Z,16.00
2023-03-12T09:41:05.528Z,16.00
2023-03-12T09:43:32.652Z,16.10
2023-03-12T09:46:00.322Z,16.10
2023-03-12T09:48:37.946Z,16.10
2023-03-12T09:51:38.235Z,16.20
2023-03-12T09:54:08.163Z,16.00
2023-03-12T09:56:35.545Z,15.90
2023-03-12T09:59:02.941Z,15.90
2023-03-12T10:01:32.856Z,16.10
2023-03-12T10:04:18.017Z,16.10
2023-03-12T10:07:02.003Z,16.10
2023-03-12T10:09:37.937Z,16.10
2023-03-12T10:12:38.446Z,15.90
2023-03-12T10:15:32.294Z,15.90
2023-03-12T10:18:11.841Z,15.90
2023-03-12T10:20:57.214Z,15.90
2023-03-12T10:23:42.101Z,16.10
2023-03-12T10:26:22.351Z,16.20
2023-03-12T10:28:59.435Z,16.30
2023-03-12T10:31:34.561Z,16.30
2023-03-12T10:34:03.314Z,16.30
2023-03-12T10:36:40.494Z,16.40
2023-03-12T10:39:18.676Z,16.50
2023-03-12T10:41:47.891Z,16.80
2023-03-12T10:44:21.648Z,16.80
2023-03-12T10:46:59.937Z,16.90
2023-03-12T10:49:30.509Z,17.00
2023-03-12T10:52:05.089Z,16.90
2023-03-12T10:54:40.749Z,17.00
2023-03-12T10:57:08.985Z,17.20
2023-03-12T10:59:38.862Z,17.20
2023-03-12T11:02:35.352Z,17.20
2023-03-12T11:05:03.640Z,17.30
2023-03-12T11:07:35.602Z,17.30
2023-03-12T11:10:08.428Z,17.30
2023-03-12T11:12:39.925Z,17.20
2023-03-12T11:15:35.766Z,17.30
2023-03-12T11:18:22.805Z,17.40
2023-03-12T11:20:52.526Z,17.50
2023-03-12T11:23:31.354Z,17.70
2023-03-12T11:26:20.970Z,17.70
2023-03-12T11:28:51.363Z,17.80
2023-03-12T11:31:37.640Z,17.90
2023-03-12T11:34:26.313Z,17.90
2023-03-12T11:37:01.656Z,18.00
2023-03-12T11:39:43.454Z,18.00
2023-03-12T11:42:25.637Z,17.90
2023-03-12T11:45:07.428Z,18.00
2023-03-12T11:47:54.266Z,17.80
2023-03-12T11:50:28.893Z,18.00
2023-03-12T11:53:20.452Z,17.80
2023-03-12T11:56:13.415Z,17.70
2023-03-12T11:58:57.414Z,17.40
2023-03-12T12:01:41.014Z,17.40
2023-03-12T12:04:33.527Z,17.70
2023-03-12T12:07:11.577Z,17.80
2023-03-12T12:09:47.583Z,18.00
2023-03-12T12:13:08.315Z,18.10
2023-03-12T12:16:13.939Z,18.20
2023-03-12T12:18:57.965Z,18.50
2023-03-12T12:21:50.598Z,18.60
2023-03-12T12:24:46.193Z,18.70
2023-03-12T12:27:25.151Z,18.60
2023-03-12T12:30:11.155Z,18.50
2023-03-12T12:33:08.220Z,18.70
2023-03-12T12:35:39.092Z,18.80
2023-03-12T12:38:18.407Z,18.90
2023-03-12T12:40:49.656Z,19.10
2023-03-12T12:43:28.270Z,19.20
2023-03-12T12:45:59.451Z,19.30
2023-03-12T12:48:38.195Z,19.50
2023-03-12T12:51:08.776Z,19.70
2023-03-12T12:53:56.238Z,19.70
2023-03-12T12:56:38.642Z,19.60
2023-03-12T12:59:26.054Z,19.70
2023-03-12T13:01:58.214Z,19.90
2023-03-12T13:04:25.099Z,20.00
2023-03-12T13:06:58.695Z,20.10
2023-03-12T13:09:38.330Z,20.00
2023-03-12T13:12:15.460Z,19.90
2023-03-12T13:14:46.513Z,19.80
2023-03-12T13:17:33.291Z,19.80
2023-03-12T13:20:08.342Z,19.90
2023-03-12T13:22:38.090Z,19.90
2023-03-12T13:25:34.511Z,20.10
2023-03-12T13:28:22.583Z,20.40
2023-03-12T13:30:51.494Z,20.50
2023-03-12T13:33:21.759Z,20.00
2023-03-12T13:36:05.064Z,19.80
2023-03-12T13:38:51.971Z,19.60
2023-03-12T13:41:33.315Z,19.70
2023-03-12T13:44:00.950Z,19.70
2023-03-12T13:46:48.088Z,19.70
2023-03-12T13:49:17.667Z,19.80
2023-03-12T13:52:21.593Z,19.90
2023-03-12T13:54:58.544Z,20.10
2023-03-12T13:57:29.355Z,20.20
2023-03-12T13:59:57.606Z,20.40
2023-03-12T14:02:32.708Z,20.10
2023-03-12T14:05:08.127Z,20.10
2023-03-12T14:07:43.948Z,20.00
2023-03-12T14:10:14.079Z,19.90
2023-03-12T14:13:01.885Z,20.00
2023-03-12T14:15:32.282Z,20.00
2023-03-12T14:18:04.136Z,20.10
2023-03-12T14:20:31.655Z,20.20
2023-03-12T14:23:04.416Z,20.30
2023-03-12T14:25:43.314Z,20.50
2023-03-12T14:28:21.193Z,20.50
2023-03-12T14:31:14.759Z,20.60
2023-03-12T14:33:53.431Z,20.70
2023-03-12T14:36:24.029Z,20.60
2023-03-12T14:39:10.267Z,20.80
2023-03-12T14:41:43.152Z,20.70
2023-03-12T14:44:37.441Z,20.70
2023-03-12T14:47:07.636Z,20.60
2023-03-12T14:49:41.392Z,20.40
2023-03-12T14:52:11.074Z,20.40
2023-03-12T14:54:39.712Z,20.50
2023-03-12T14:57:13.167Z,20.60
2023-03-12T14:59:40.292Z,20.40
2023-03-12T15:02:19.286Z,20.30
2023-03-12T15:04:48.736Z,20.20
2023-03-12T15:07:21.936Z,20.20
2023-03-12T15:09:52.121Z,20.10
2023-03-12T15:12:24.856Z,19.90
2023-03-12T15:14:55.557Z,19.80
2023-03-12T15:17:27.203Z,19.80
2023-03-12T15:19:54.849Z,19.80
2023-03-12T15:22:24.777Z,19.70
2023-03-12T15:24:52.156Z,19.80
2023-03-12T15:27:28.235Z,19.80
2023-03-12T15:29:56.469Z,19.90
2023-03-12T15:32:25.724Z,20.00
2023-03-12T15:34:54.642Z,20.00
2023-03-12T15:37:32.737Z,20.00
2023-03-12T15:40:02.402Z,20.20
2023-03-12T15:42:29.695Z,20.30
2023-03-12T15:44:59.270Z,20.50
2023-03-12T15:47:30.599Z,20.70
2023-03-12T15:49:59.238Z,20.90
2023-03-12T15:52:36.283Z,21.00
2023-03-12T15:55:15.026Z,21.10
2023-03-12T15:57:50.176Z,21.00
2023-03-12T16:00:25.829Z,20.70
2023-03-12T16:03:06.166Z,20.60
2023-03-12T16:05:36.396Z,20.40
2023-03-12T16:08:27.160Z,20.40
2023-03-12T16:10:55.478Z,20.50
2023-03-12T16:13:31.769Z,20.80
2023-03-12T16:15:58.807Z,20.90
2023-03-12T16:18:25.766Z,20.70
2023-03-12T16:20:53.714Z,20.50
2023-03-12T16:23:20.523Z,20.50
2023-03-12T16:25:55.748Z,20.60
2023-03-12T16:28:24.093Z,20.50
2023-03-12T16:30:51.857Z,20.50
2023-03-12T16:33:21.625Z,20.40
2023-03-12T16:35:48.881Z,20.10
2023-03-12T16:38:15.963Z,19.90
2023-03-12T16:40:48.788Z,19.90
2023-03-12T16:43:24.343Z,19.90
2023-03-12T16:45:52.807Z,19.80
2023-03-12T16:48:23.151Z,19.60
2023-03-12T16:50:52.529Z,19.40
2023-03-12T16:53:20.133Z,19.10
2023-03-12T16:55:59.093Z,19.00
2023-03-12T16:58:27.013Z,18.70
2023-03-12T17:00:55.657Z,18.50
2023-03-12T17:03:38.137Z,18.20
2023-03-12T17:06:06.709Z,17.90
2023-03-12T17:08:36.330Z,17.70
2023-03-12T17:11:12.393Z,17.50
2023-03-12T17:13:39.317Z,17.40
2023-03-12T17:16:06.288Z,17.30
2023-03-12T17:18:33.163Z,17.30
2023-03-12T17:21:00.016Z,17.20
2023-03-12T17:23:27.549Z,17.10
2023-03-12T17:25:54.396Z,17.00
2023-03-12T17:28:21.280Z,16.90
2023-03-12T17:30:48.077Z,16.80
2023-03-12T17:33:17.346Z,16.70
2023-03-12T17:35:44.873Z,16.60
2023-03-12T17:38:12.637Z,16.50
2023-03-12T17:40:43.452Z,16.50
2023-03-12T17:43:11.014Z,16.30
2023-03-12T17:45:38.127Z,16.20
2023-03-12T17:48:05.494Z,16.10
2023-03-12T17:50:32.474Z,16.00
2023-03-12T17:52:59.332Z,15.90
2023-03-12T17:55:26.280Z,15.70
2023-03-12T17:57:53.325Z,15.70
2023-03-12T18:00:22.017Z,15.60
2023-03-12T18:02:50.258Z,15.50
2023-03-12T18:05:17.106Z,15.40
2023-03-12T18:07:43.914Z,15.30
2023-03-12T18:10:11.588Z,15.20
2023-03-12T18:12:40.278Z,15.10
2023-03-12T18:15:09.108Z,15.00
2023-03-12T18:17:36.058Z,14.90
2023-03-12T18:20:09.461Z,14.80
2023-03-12T18:22:38.311Z,14.70
2023-03-12T18:25:06.513Z,14.50
2023-03-12T18:27:33.465Z,14.50
2023-03-12T18:30:00.275Z,14.40
2023-03-12T18:32:27.236Z,14.20
2023-03-12T18:34:54.964Z,14.10
2023-03-12T18:37:23.010Z,14.00
2023-03-12T18:39:49.801Z,14.00
2023-03-12T18:42:16.662Z,13.90
2023-03-12T18:44:43.848Z,13.80
2023-03-12T18:47:10.717Z,13.70
2023-03-12T18:49:37.647Z,13.70
2023-03-12T18:52:04.745Z,13.60
2023-03-12T18:54:33.641Z,13.50
2023-03-12T18:57:01.177Z,13.40
2023-03-12T18:59:29.568Z,13.30
2023-03-12T19:01:57.637Z,13.30
2023-03-12T19:04:25.919Z,13.10
2023-03-12T19:06:52.847Z,13.00
2023-03-12T19:09:20.963Z,13.00
2023-03-12T19:11:48.486Z,12.90
2023-03-12T19:14:18.199Z,12.80
2023-03-12T19:16:45.043Z,12.80
2023-03-12T19:19:11.965Z,12.70
2023-03-12T19:21:38.775Z,12.60
2023-03-12T19:24:07.153Z,12.50
2023-03-12T19:26:34.114Z,12.40
2023-03-12T19:29:04.053Z,12.30
2023-03-12T19:31:33.919Z,12.20
2023-03-12T19:34:00.820Z,12.20
2023-03-12T19:36:27.681Z,12.00
2023-03-12T19:38:54.491Z,11.90
2023-03-12T19:41:21.382Z,11.80
2023-03-12T19:43:48.425Z,11.70
2023-03-12T19:46:15.416Z,11.50
2023-03-12T19:48:44.818Z,11.40
2023-03-12T19:51:12.242Z,11.30
2023-03-12T19:53:39.235Z,11.30
2023-03-12T19:56:06.803Z,11.20
2023-03-12T19:58:33.755Z,11.20
2023-03-12T20:01:02.162Z,11.10
2023-03-12T20:03:33.072Z,11.10
2023-03-12T20:06:02.323Z,11.10
2023-03-12T20:08:32.171Z,11.10
2023-03-12T20:11:08.684Z,11.00
2023-03-12T20:13:38.736Z,10.90
2023-03-12T20:16:07.688Z,10.90
2023-03-12T20:18:36.779Z,10.80
2023-03-12T20:21:04.064Z,10.80
2023-03-12T20:23:31.426Z,10.70
2023-03-12T20:25:58.371Z,10.50
2023-03-12T20:28:25.350Z,10.40
2023-03-12T20:30:52.838Z,10.40
2023-03-12T20:33:19.689Z,10.30
2023-03-12T20:35:48.617Z,10.30
2023-03-12T20:38:17.077Z,10.30
2023-03-12T20:40:49.233Z,10.30
2023-03-12T20:43:16.176Z,10.30
2023-03-12T20:45:48.021Z,10.30
2023-03-12T20:48:14.989Z,10.20
2023-03-12T20:50:41.845Z,10.20
2023-03-12T20:53:08.744Z,10.20
2023-03-12T20:55:38.293Z,10.10
2023-03-12T20:58:05.808Z,10.00
2023-03-12T21:00:36.539Z,9.90
2023-03-12T21:03:03.401Z,9.90
2023-03-12T21:05:31.724Z,9.80
2023-03-12T21:07:58.603Z,9.70
2023-03-12T21:10:25.682Z,9.60
2023-03-12T21:12:52.470Z,9.50
2023-03-12T21:15:19.491Z,9.40
2023-03-12T21:17:46.382Z,9.40
2023-03-12T21:20:14.410Z,9.40
2023-03-12T21:22:43.389Z,9.40
2023-03-12T21:25:13.748Z,9.40
2023-03-12T21:27:49.772Z,9.40
2023-03-12T21:30:19.214Z,9.40
2023-03-12T21:32:46.499Z,9.40
2023-03-12T21:35:13.377Z,9.40
2023-03-12T21:37:40.465Z,9.40
2023-03-12T21:40:09.032Z,9.30
2023-03-12T21:42:35.870Z,9.20
2023-03-12T21:45:02.760Z,9.20
2023-03-12T21:47:29.618Z,9.10
2023-03-12T21:49:56.404Z,9.10
2023-03-12T21:52:23.463Z,9.00
2023-03-12T21:54:50.435Z,8.90
2023-03-12T21:57:17.290Z,8.90
2023-03-12T21:59:44.117Z,8.80
2023-03-12T22:02:14.953Z,8.80
2023-03-12T22:04:41.839Z,8.80
2023-03-12T22:07:08.807Z,8.80
2023-03-12T22:09:35.620Z,8.80
2023-03-12T22:12:03.399Z,8.80
2023-03-12T22:14:30.280Z,8.80
2023-03-12T22:16:57.643Z,8.70
2023-03-12T22:19:24.641Z,8.70
2023-03-12T22:21:51.494Z,8.50
2023-03-12T22:24:18.266Z,8.50
2023-03-12T22:26:46.490Z,8.40
2023-03-12T22:29:13.553Z,8.30
2023-03-12T22:31:40.397Z,8.20
2023-03-12T22:34:07.427Z,8.20
2023-03-12T22:36:34.316Z,8.20
2023-03-12T22:39:01.138Z,8.10
2023-03-12T22:41:29.504Z,8.10
2023-03-12T22:44:01.056Z,8.10
2023-03-12T22:46:27.997Z,8.10
2023-03-12T22:48:57.334Z,8.10
2023-03-12T22:51:25.395Z,8.10
2023-03-12T22:53:53.733Z,8.20
2023-03-12T22:56:20.787Z,8.20
2023-03-12T22:58:48.316Z,8.10
2023-03-12T23:01:18.309Z,8.10
2023-03-12T23:03:45.936Z,8.10
2023-03-12T23:06:24.164Z,8.10
2023-03-12T23:08:52.028Z,8.10
2023-03-12T23:11:20.791Z,8.10
2023-03-12T23:13:49.766Z,8.10
2023-03-12T23:16:22.090Z,8.10
2023-03-12T23:18:49.407Z,8.10
2023-03-12T23:21:21.957Z,8.10
2023-03-12T23:23:50.340Z,8.10
2023-03-12T23:26:18.245Z,8.00
2023-03-12T23:28:47.278Z,8.00
2023-03-12T23:31:15.903Z,7.90
2023-03-12T23:33:43.525Z,7.90
2023-03-12T23:36:16.469Z,7.80
2023-03-12T23:38:44.660Z,7.80
2023-03-12T23:41:12.990Z,7.70
2023-03-12T23:43:40.413Z,7.70
2023-03-12T23:46:09.426Z,7.70
2023-03-12T23:48:37.460Z,7.70
2023-03-12T23:51:12.876Z,7.70
2023-03-12T23:53:41.580Z,7.80
2023-03-12T23:56:11.121Z,7.80
2023-03-12T23:58:38.440Z,7.80
